sensor_id;sensor_type;location;lat;lon;timestamp;P1;durP1;ratioP1;P2;durP2;ratioP2
36301;SDS011;22334;53.022;18.606;2023-02-26T00:01:48;8.97;;;3.13;;
36301;SDS011;22334;53.022;18.606;2023-02-26T00:04:19;9.43;;;3.40;;
36301;SDS011;22334;53.022;18.606;2023-02-26T00:06:45;7.78;;;3.58;;
36301;SDS011;22334;53.022;18.606;2023-02-26T00:09:26;9.97;;;3.73;;
36301;SDS011;22334;53.022;18.606;2023-02-26T00:12:03;9.23;;;3.22;;
36301;SDS011;22334;53.022;18.606;2023-02-26T00:14:29;8.35;;;3.50;;
36301;SDS011;22334;53.022;18.606;2023-02-26T00:19:57;10.43;;;3.50;;
36301;SDS011;22334;53.022;18.606;2023-02-26T00:22:49;10.20;;;3.63;;
36301;SDS011;22334;53.022;18.606;2023-02-26T00:25:24;11.10;;;3.13;;
36301;SDS011;22334;53.022;18.606;2023-02-26T00:27:49;7.57;;;3.47;;
36301;SDS011;22334;53.022;18.606;2023-02-26T00:30:18;11.25;;;3.20;;
36301;SDS011;22334;53.022;18.606;2023-02-26T00:32:47;11.70;;;3.87;;
36301;SDS011;22334;53.022;18.606;2023-02-26T00:35:16;6.97;;;3.60;;
36301;SDS011;22334;53.022;18.606;2023-02-26T00:37:58;8.57;;;3.60;;
36301;SDS011;22334;53.022;18.606;2023-02-26T00:40:33;7.00;;;3.35;;
36301;SDS011;22334;53.022;18.606;2023-02-26T00:43:01;11.13;;;4.63;;
36301;SDS011;22334;53.022;18.606;2023-02-26T00:45:31;9.37;;;3.60;;
36301;SDS011;22334;53.022;18.606;2023-02-26T00:48:21;7.63;;;3.20;;
36301;SDS011;22334;53.022;18.606;2023-02-26T00:56:28;8.40;;;3.10;;
36301;SDS011;22334;53.022;18.606;2023-02-26T00:58:54;6.88;;;2.95;;
36301;SDS011;22334;53.022;18.606;2023-02-26T01:01:28;7.93;;;3.40;;
36301;SDS011;22334;53.022;18.606;2023-02-26T01:04:15;6.28;;;2.65;;
36301;SDS011;22334;53.022;18.606;2023-02-26T01:06:46;9.45;;;3.03;;
36301;SDS011;22334;53.022;18.606;2023-02-26T01:12:10;12.03;;;3.53;;
36301;SDS011;22334;53.022;18.606;2023-02-26T01:14:41;9.32;;;3.20;;
36301;SDS011;22334;53.022;18.606;2023-02-26T01:17:10;8.30;;;3.57;;
36301;SDS011;22334;53.022;18.606;2023-02-26T01:22:18;7.78;;;3.58;;
36301;SDS011;22334;53.022;18.606;2023-02-26T01:24:53;8.60;;;2.53;;
36301;SDS011;22334;53.022;18.606;2023-02-26T01:27:22;6.30;;;2.70;;
36301;SDS011;22334;53.022;18.606;2023-02-26T01:29:48;5.00;;;2.67;;
36301;SDS011;22334;53.022;18.606;2023-02-26T01:35:26;6.17;;;2.20;;
36301;SDS011;22334;53.022;18.606;2023-02-26T01:37:57;5.47;;;2.43;;
36301;SDS011;22334;53.022;18.606;2023-02-26T01:43:10;8.17;;;2.90;;
36301;SDS011;22334;53.022;18.606;2023-02-26T01:46:02;4.93;;;2.50;;
36301;SDS011;22334;53.022;18.606;2023-02-26T01:48:42;7.90;;;2.80;;
36301;SDS011;22334;53.022;18.606;2023-02-26T01:51:13;10.07;;;2.80;;
36301;SDS011;22334;53.022;18.606;2023-02-26T01:53:39;10.33;;;2.73;;
36301;SDS011;22334;53.022;18.606;2023-02-26T01:56:07;10.63;;;3.30;;
36301;SDS011;22334;53.022;18.606;2023-02-26T01:58:36;9.57;;;3.50;;
36301;SDS011;22334;53.022;18.606;2023-02-26T02:01:07;8.93;;;3.55;;
36301;SDS011;22334;53.022;18.606;2023-02-26T02:03:38;5.70;;;2.50;;
36301;SDS011;22334;53.022;18.606;2023-02-26T02:09:05;12.77;;;3.08;;
36301;SDS011;22334;53.022;18.606;2023-02-26T02:36:47;7.32;;;2.40;;
36301;SDS011;22334;53.022;18.606;2023-02-26T02:39:44;7.53;;;2.43;;
36301;SDS011;22334;53.022;18.606;2023-02-26T02:44:38;6.82;;;2.55;;
36301;SDS011;22334;53.022;18.606;2023-02-26T02:47:09;5.00;;;2.45;;
36301;SDS011;22334;53.022;18.606;2023-02-26T02:49:38;5.30;;;2.30;;
36301;SDS011;22334;53.022;18.606;2023-02-26T02:52:18;5.73;;;2.43;;
36301;SDS011;22334;53.022;18.606;2023-02-26T02:55:20;7.17;;;2.07;;
36301;SDS011;22334;53.022;18.606;2023-02-26T03:01:12;5.93;;;2.00;;
36301;SDS011;22334;53.022;18.606;2023-02-26T03:06:53;4.77;;;1.80;;
36301;SDS011;22334;53.022;18.606;2023-02-26T03:09:21;3.92;;;1.92;;
36301;SDS011;22334;53.022;18.606;2023-02-26T03:11:50;3.25;;;1.60;;
36301;SDS011;22334;53.022;18.606;2023-02-26T03:14:18;5.37;;;1.90;;
36301;SDS011;22334;53.022;18.606;2023-02-26T03:22:50;6.63;;;1.60;;
36301;SDS011;22334;53.022;18.606;2023-02-26T03:25:28;4.27;;;1.80;;
36301;SDS011;22334;53.022;18.606;2023-02-26T03:30:45;5.18;;;1.90;;
36301;SDS011;22334;53.022;18.606;2023-02-26T03:36:45;5.40;;;1.90;;
36301;SDS011;22334;53.022;18.606;2023-02-26T03:45:00;7.80;;;2.30;;
36301;SDS011;22334;53.022;18.606;2023-02-26T03:47:32;4.18;;;1.80;;
36301;SDS011;22334;53.022;18.606;2023-02-26T03:50:09;7.93;;;1.55;;
36301;SDS011;22334;53.022;18.606;2023-02-26T03:56:03;2.75;;;1.58;;
36301;SDS011;22334;53.022;18.606;2023-02-26T03:58:57;4.90;;;1.60;;
36301;SDS011;22334;53.022;18.606;2023-02-26T04:01:33;4.07;;;2.23;;
36301;SDS011;22334;53.022;18.606;2023-02-26T04:04:33;4.85;;;1.67;;
36301;SDS011;22334;53.022;18.606;2023-02-26T04:07:09;4.63;;;2.25;;
36301;SDS011;22334;53.022;18.606;2023-02-26T04:09:45;2.85;;;1.50;;
36301;SDS011;22334;53.022;18.606;2023-02-26T04:12:16;3.20;;;1.60;;
36301;SDS011;22334;53.022;18.606;2023-02-26T04:14:54;4.65;;;1.98;;
36301;SDS011;22334;53.022;18.606;2023-02-26T04:17:20;3.90;;;1.73;;
36301;SDS011;22334;53.022;18.606;2023-02-26T04:19:51;3.58;;;1.77;;
36301;SDS011;22334;53.022;18.606;2023-02-26T04:22:17;7.47;;;1.70;;
36301;SDS011;22334;53.022;18.606;2023-02-26T04:24:45;5.00;;;2.00;;
36301;SDS011;22334;53.022;18.606;2023-02-26T04:27:11;6.40;;;2.10;;
36301;SDS011;22334;53.022;18.606;2023-02-26T04:29:42;3.03;;;1.40;;
36301;SDS011;22334;53.022;18.606;2023-02-26T04:32:08;3.77;;;1.50;;
36301;SDS011;22334;53.022;18.606;2023-02-26T04:34:35;4.27;;;1.87;;
36301;SDS011;22334;53.022;18.606;2023-02-26T04:37:04;4.97;;;1.43;;
36301;SDS011;22334;53.022;18.606;2023-02-26T04:39:39;3.83;;;1.77;;
36301;SDS011;22334;53.022;18.606;2023-02-26T04:42:07;7.23;;;1.70;;
36301;SDS011;22334;53.022;18.606;2023-02-26T04:44:36;3.77;;;1.87;;
36301;SDS011;22334;53.022;18.606;2023-02-26T04:47:01;5.57;;;1.92;;
36301;SDS011;22334;53.022;18.606;2023-02-26T04:49:47;3.77;;;1.53;;
36301;SDS011;22334;53.022;18.606;2023-02-26T04:52:12;5.67;;;1.70;;
36301;SDS011;22334;53.022;18.606;2023-02-26T04:54:38;3.40;;;1.42;;
36301;SDS011;22334;53.022;18.606;2023-02-26T04:57:07;2.50;;;1.40;;
36301;SDS011;22334;53.022;18.606;2023-02-26T04:59:32;4.63;;;1.20;;
36301;SDS011;22334;53.022;18.606;2023-02-26T05:01:58;3.40;;;1.50;;
36301;SDS011;22334;53.022;18.606;2023-02-26T05:04:23;3.10;;;1.20;;
36301;SDS011;22334;53.022;18.606;2023-02-26T05:06:49;3.88;;;1.60;;
36301;SDS011;22334;53.022;18.606;2023-02-26T05:09:14;6.72;;;2.13;;
36301;SDS011;22334;53.022;18.606;2023-02-26T05:11:39;3.67;;;1.63;;
36301;SDS011;22334;53.022;18.606;2023-02-26T05:14:05;4.57;;;2.17;;
36301;SDS011;22334;53.022;18.606;2023-02-26T05:16:30;3.60;;;1.50;;
36301;SDS011;22334;53.022;18.606;2023-02-26T05:18:56;3.90;;;1.40;;
36301;SDS011;22334;53.022;18.606;2023-02-26T05:21:21;5.00;;;1.53;;
36301;SDS011;22334;53.022;18.606;2023-02-26T05:23:47;4.43;;;1.53;;
36301;SDS011;22334;53.022;18.606;2023-02-26T05:26:12;2.67;;;1.40;;
36301;SDS011;22334;53.022;18.606;2023-02-26T05:28:37;3.93;;;1.50;;
36301;SDS011;22334;53.022;18.606;2023-02-26T05:31:03;4.10;;;1.60;;
36301;SDS011;22334;53.022;18.606;2023-02-26T05:33:28;5.43;;;1.50;;
36301;SDS011;22334;53.022;18.606;2023-02-26T05:35:54;3.90;;;1.60;;
36301;SDS011;22334;53.022;18.606;2023-02-26T05:38:19;4.80;;;1.60;;
36301;SDS011;22334;53.022;18.606;2023-02-26T05:40:45;5.37;;;1.50;;
36301;SDS011;22334;53.022;18.606;2023-02-26T05:43:10;5.03;;;1.80;;
36301;SDS011;22334;53.022;18.606;2023-02-26T05:45:35;6.33;;;1.90;;
36301;SDS011;22334;53.022;18.606;2023-02-26T05:48:01;3.83;;;1.90;;
36301;SDS011;22334;53.022;18.606;2023-02-26T05:50:27;5.67;;;2.13;;
36301;SDS011;22334;53.022;18.606;2023-02-26T05:52:54;5.97;;;2.60;;
36301;SDS011;22334;53.022;18.606;2023-02-26T05:55:19;6.17;;;2.27;;
36301;SDS011;22334;53.022;18.606;2023-02-26T05:57:45;4.80;;;2.33;;
36301;SDS011;22334;53.022;18.606;2023-02-26T06:00:10;5.33;;;1.90;;
36301;SDS011;22334;53.022;18.606;2023-02-26T06:02:36;6.65;;;2.00;;
36301;SDS011;22334;53.022;18.606;2023-02-26T06:05:01;8.20;;;2.30;;
36301;SDS011;22334;53.022;18.606;2023-02-26T06:07:27;7.87;;;2.03;;
36301;SDS011;22334;53.022;18.606;2023-02-26T06:09:52;6.80;;;2.47;;
36301;SDS011;22334;53.022;18.606;2023-02-26T06:12:18;6.68;;;2.65;;
36301;SDS011;22334;53.022;18.606;2023-02-26T06:14:43;9.50;;;3.77;;
36301;SDS011;22334;53.022;18.606;2023-02-26T06:17:08;6.80;;;3.00;;
36301;SDS011;22334;53.022;18.606;2023-02-26T06:19:34;6.73;;;2.87;;
36301;SDS011;22334;53.022;18.606;2023-02-26T06:21:59;7.33;;;2.77;;
36301;SDS011;22334;53.022;18.606;2023-02-26T06:24:25;8.10;;;2.97;;
36301;SDS011;22334;53.022;18.606;2023-02-26T06:26:50;8.83;;;2.93;;
36301;SDS011;22334;53.022;18.606;2023-02-26T06:29:16;8.17;;;3.07;;
36301;SDS011;22334;53.022;18.606;2023-02-26T06:31:43;8.50;;;3.57;;
36301;SDS011;22334;53.022;18.606;2023-02-26T06:34:09;9.50;;;3.77;;
36301;SDS011;22334;53.022;18.606;2023-02-26T06:36:34;9.33;;;3.90;;
36301;SDS011;22334;53.022;18.606;2023-02-26T06:39:03;10.50;;;3.78;;
36301;SDS011;22334;53.022;18.606;2023-02-26T06:41:28;10.60;;;3.67;;
36301;SDS011;22334;53.022;18.606;2023-02-26T06:43:54;10.93;;;4.20;;
36301;SDS011;22334;53.022;18.606;2023-02-26T06:46:19;10.05;;;3.72;;
36301;SDS011;22334;53.022;18.606;2023-02-26T06:48:45;12.85;;;3.60;;
36301;SDS011;22334;53.022;18.606;2023-02-26T06:51:10;7.90;;;2.90;;
36301;SDS011;22334;53.022;18.606;2023-02-26T06:53:36;7.63;;;3.75;;
36301;SDS011;22334;53.022;18.606;2023-02-26T06:56:01;6.90;;;2.95;;
36301;SDS011;22334;53.022;18.606;2023-02-26T06:58:27;5.53;;;2.60;;
36301;SDS011;22334;53.022;18.606;2023-02-26T07:00:52;10.13;;;2.90;;
36301;SDS011;22334;53.022;18.606;2023-02-26T07:03:18;7.13;;;3.22;;
36301;SDS011;22334;53.022;18.606;2023-02-26T07:05:44;8.60;;;2.75;;
36301;SDS011;22334;53.022;18.606;2023-02-26T07:08:10;8.05;;;2.90;;
36301;SDS011;22334;53.022;18.606;2023-02-26T07:10:35;7.10;;;2.50;;
36301;SDS011;22334;53.022;18.606;2023-02-26T07:13:01;4.60;;;2.30;;
36301;SDS011;22334;53.022;18.606;2023-02-26T07:15:27;11.20;;;2.45;;
36301;SDS011;22334;53.022;18.606;2023-02-26T07:17:53;4.20;;;2.10;;
36301;SDS011;22334;53.022;18.606;2023-02-26T07:20:18;6.00;;;2.40;;
36301;SDS011;22334;53.022;18.606;2023-02-26T07:22:44;4.23;;;2.20;;
36301;SDS011;22334;53.022;18.606;2023-02-26T07:25:10;4.82;;;2.30;;
36301;SDS011;22334;53.022;18.606;2023-02-26T07:27:36;6.10;;;1.90;;
36301;SDS011;22334;53.022;18.606;2023-02-26T07:30:02;4.13;;;1.83;;
36301;SDS011;22334;53.022;18.606;2023-02-26T07:32:29;7.20;;;2.83;;
36301;SDS011;22334;53.022;18.606;2023-02-26T07:34:55;6.03;;;2.78;;
36301;SDS011;22334;53.022;18.606;2023-02-26T07:37:20;4.88;;;2.70;;
36301;SDS011;22334;53.022;18.606;2023-02-26T07:39:46;6.40;;;3.20;;
36301;SDS011;22334;53.022;18.606;2023-02-26T07:42:11;7.20;;;2.85;;
36301;SDS011;22334;53.022;18.606;2023-02-26T07:44:36;8.23;;;3.25;;
36301;SDS011;22334;53.022;18.606;2023-02-26T07:47:02;7.68;;;2.85;;
36301;SDS011;22334;53.022;18.606;2023-02-26T07:49:27;7.78;;;2.70;;
36301;SDS011;22334;53.022;18.606;2023-02-26T07:51:53;6.30;;;2.88;;
36301;SDS011;22334;53.022;18.606;2023-02-26T07:54:18;6.35;;;2.97;;
36301;SDS011;22334;53.022;18.606;2023-02-26T07:56:44;5.45;;;2.70;;
36301;SDS011;22334;53.022;18.606;2023-02-26T07:59:09;13.70;;;3.60;;
36301;SDS011;22334;53.022;18.606;2023-02-26T08:01:36;7.28;;;3.03;;
36301;SDS011;22334;53.022;18.606;2023-02-26T08:04:02;6.50;;;2.58;;
36301;SDS011;22334;53.022;18.606;2023-02-26T08:06:28;5.88;;;2.75;;
36301;SDS011;22334;53.022;18.606;2023-02-26T08:08:53;8.77;;;3.17;;
36301;SDS011;22334;53.022;18.606;2023-02-26T08:11:19;7.40;;;2.30;;
36301;SDS011;22334;53.022;18.606;2023-02-26T08:13:45;6.88;;;3.13;;
36301;SDS011;22334;53.022;18.606;2023-02-26T08:16:10;6.35;;;2.63;;
36301;SDS011;22334;53.022;18.606;2023-02-26T08:18:36;5.95;;;2.53;;
36301;SDS011;22334;53.022;18.606;2023-02-26T08:21:01;8.15;;;2.50;;
36301;SDS011;22334;53.022;18.606;2023-02-26T08:23:27;6.13;;;2.83;;
36301;SDS011;22334;53.022;18.606;2023-02-26T08:26:00;5.03;;;2.33;;
36301;SDS011;22334;53.022;18.606;2023-02-26T08:28:26;5.90;;;2.27;;
36301;SDS011;22334;53.022;18.606;2023-02-26T08:30:52;6.30;;;3.00;;
36301;SDS011;22334;53.022;18.606;2023-02-26T08:33:17;7.80;;;3.10;;
36301;SDS011;22334;53.022;18.606;2023-02-26T08:35:43;5.18;;;2.45;;
36301;SDS011;22334;53.022;18.606;2023-02-26T08:38:08;5.95;;;3.05;;
36301;SDS011;22334;53.022;18.606;2023-02-26T08:40:34;7.45;;;3.42;;
36301;SDS011;22334;53.022;18.606;2023-02-26T08:42:59;7.38;;;3.33;;
36301;SDS011;22334;53.022;18.606;2023-02-26T08:45:25;8.88;;;3.92;;
36301;SDS011;22334;53.022;18.606;2023-02-26T08:47:51;7.40;;;3.13;;
36301;SDS011;22334;53.022;18.606;2023-02-26T08:50:18;8.98;;;4.10;;
36301;SDS011;22334;53.022;18.606;2023-02-26T08:52:43;7.68;;;3.85;;
36301;SDS011;22334;53.022;18.606;2023-02-26T08:55:09;8.20;;;4.05;;
36301;SDS011;22334;53.022;18.606;2023-02-26T08:57:34;6.35;;;3.00;;
36301;SDS011;22334;53.022;18.606;2023-02-26T09:00:00;8.50;;;2.85;;
36301;SDS011;22334;53.022;18.606;2023-02-26T09:02:25;6.25;;;3.00;;
36301;SDS011;22334;53.022;18.606;2023-02-26T09:04:50;6.45;;;2.75;;
36301;SDS011;22334;53.022;18.606;2023-02-26T09:07:16;6.13;;;1.75;;
36301;SDS011;22334;53.022;18.606;2023-02-26T09:09:41;3.90;;;1.92;;
36301;SDS011;22334;53.022;18.606;2023-02-26T09:12:07;5.97;;;2.25;;
36301;SDS011;22334;53.022;18.606;2023-02-26T09:14:32;5.28;;;2.28;;
36301;SDS011;22334;53.022;18.606;2023-02-26T09:16:57;12.10;;;4.45;;
36301;SDS011;22334;53.022;18.606;2023-02-26T09:19:23;4.73;;;2.40;;
36301;SDS011;22334;53.022;18.606;2023-02-26T09:21:48;6.63;;;3.13;;
36301;SDS011;22334;53.022;18.606;2023-02-26T09:24:14;9.57;;;4.53;;
36301;SDS011;22334;53.022;18.606;2023-02-26T09:26:39;6.90;;;3.75;;
36301;SDS011;22334;53.022;18.606;2023-02-26T09:29:04;8.27;;;3.58;;
36301;SDS011;22334;53.022;18.606;2023-02-26T09:31:30;6.70;;;3.15;;
36301;SDS011;22334;53.022;18.606;2023-02-26T09:33:56;7.97;;;3.65;;
36301;SDS011;22334;53.022;18.606;2023-02-26T09:36:22;8.98;;;4.03;;
36301;SDS011;22334;53.022;18.606;2023-02-26T09:38:47;9.35;;;3.50;;
36301;SDS011;22334;53.022;18.606;2023-02-26T09:47:06;13.35;;;6.40;;
36301;SDS011;22334;53.022;18.606;2023-02-26T09:52:16;17.85;;;8.82;;
36301;SDS011;22334;53.022;18.606;2023-02-26T09:54:55;15.50;;;8.35;;
36301;SDS011;22334;53.022;18.606;2023-02-26T09:57:28;15.38;;;8.50;;
36301;SDS011;22334;53.022;18.606;2023-02-26T09:59:54;12.75;;;7.10;;
36301;SDS011;22334;53.022;18.606;2023-02-26T10:02:22;13.17;;;5.87;;
36301;SDS011;22334;53.022;18.606;2023-02-26T10:05:07;13.37;;;6.87;;
36301;SDS011;22334;53.022;18.606;2023-02-26T10:10:25;15.57;;;6.68;;
36301;SDS011;22334;53.022;18.606;2023-02-26T10:12:59;9.80;;;4.82;;
36301;SDS011;22334;53.022;18.606;2023-02-26T10:15:46;10.80;;;4.07;;
36301;SDS011;22334;53.022;18.606;2023-02-26T10:18:24;9.88;;;3.83;;
36301;SDS011;22334;53.022;18.606;2023-02-26T10:21:02;9.30;;;4.07;;
36301;SDS011;22334;53.022;18.606;2023-02-26T10:23:59;10.38;;;3.55;;
36301;SDS011;22334;53.022;18.606;2023-02-26T10:26:32;14.52;;;3.10;;
36301;SDS011;22334;53.022;18.606;2023-02-26T10:39:51;9.55;;;2.53;;
36301;SDS011;22334;53.022;18.606;2023-02-26T10:42:21;8.40;;;2.95;;
36301;SDS011;22334;53.022;18.606;2023-02-26T10:50:52;12.90;;;2.15;;
36301;SDS011;22334;53.022;18.606;2023-02-26T10:53:26;6.60;;;1.98;;
36301;SDS011;22334;53.022;18.606;2023-02-26T10:56:06;10.00;;;2.65;;
36301;SDS011;22334;53.022;18.606;2023-02-26T10:58:44;5.67;;;1.87;;
36301;SDS011;22334;53.022;18.606;2023-02-26T11:01:26;8.52;;;2.78;;
36301;SDS011;22334;53.022;18.606;2023-02-26T11:04:07;5.53;;;2.00;;
36301;SDS011;22334;53.022;18.606;2023-02-26T11:06:47;8.57;;;1.90;;
36301;SDS011;22334;53.022;18.606;2023-02-26T11:09:19;7.60;;;2.40;;
36301;SDS011;22334;53.022;18.606;2023-02-26T11:11:52;6.68;;;2.13;;
36301;SDS011;22334;53.022;18.606;2023-02-26T11:14:19;5.28;;;2.22;;
36301;SDS011;22334;53.022;18.606;2023-02-26T11:16:56;6.57;;;1.90;;
36301;SDS011;22334;53.022;18.606;2023-02-26T11:19:28;9.20;;;2.17;;
36301;SDS011;22334;53.022;18.606;2023-02-26T11:21:57;5.57;;;1.40;;
36301;SDS011;22334;53.022;18.606;2023-02-26T11:27:21;5.03;;;1.80;;
36301;SDS011;22334;53.022;18.606;2023-02-26T11:29:57;4.78;;;2.00;;
36301;SDS011;22334;53.022;18.606;2023-02-26T11:32:32;6.43;;;2.03;;
36301;SDS011;22334;53.022;18.606;2023-02-26T11:34:59;8.13;;;2.42;;
36301;SDS011;22334;53.022;18.606;2023-02-26T11:37:35;3.97;;;1.42;;
36301;SDS011;22334;53.022;18.606;2023-02-26T11:40:26;7.10;;;2.17;;
36301;SDS011;22334;53.022;18.606;2023-02-26T11:42:59;6.38;;;1.67;;
36301;SDS011;22334;53.022;18.606;2023-02-26T11:45:29;4.60;;;1.92;;
36301;SDS011;22334;53.022;18.606;2023-02-26T11:48:05;6.00;;;1.95;;
36301;SDS011;22334;53.022;18.606;2023-02-26T11:50:38;6.88;;;1.70;;
36301;SDS011;22334;53.022;18.606;2023-02-26T11:53:14;8.15;;;1.70;;
36301;SDS011;22334;53.022;18.606;2023-02-26T11:55:54;13.38;;;1.90;;
36301;SDS011;22334;53.022;18.606;2023-02-26T11:58:24;4.35;;;1.50;;
36301;SDS011;22334;53.022;18.606;2023-02-26T12:00:55;7.03;;;1.60;;
36301;SDS011;22334;53.022;18.606;2023-02-26T12:03:31;7.40;;;1.83;;
36301;SDS011;22334;53.022;18.606;2023-02-26T12:06:21;4.82;;;1.70;;
36301;SDS011;22334;53.022;18.606;2023-02-26T12:08:50;5.50;;;1.90;;
36301;SDS011;22334;53.022;18.606;2023-02-26T12:27:41;7.60;;;1.92;;
36301;SDS011;22334;53.022;18.606;2023-02-26T12:45:16;6.40;;;1.45;;
36301;SDS011;22334;53.022;18.606;2023-02-26T12:50:41;4.05;;;1.33;;
36301;SDS011;22334;53.022;18.606;2023-02-26T12:58:29;4.80;;;1.35;;
36301;SDS011;22334;53.022;18.606;2023-02-26T13:01:10;6.65;;;1.40;;
36301;SDS011;22334;53.022;18.606;2023-02-26T13:06:39;7.63;;;1.67;;
36301;SDS011;22334;53.022;18.606;2023-02-26T13:17:14;3.75;;;1.48;;
36301;SDS011;22334;53.022;18.606;2023-02-26T13:20:24;6.35;;;1.88;;
36301;SDS011;22334;53.022;18.606;2023-02-26T13:23:04;4.40;;;1.17;;
36301;SDS011;22334;53.022;18.606;2023-02-26T13:28:21;6.65;;;1.85;;
36301;SDS011;22334;53.022;18.606;2023-02-26T13:31:15;9.93;;;3.13;;
36301;SDS011;22334;53.022;18.606;2023-02-26T13:33:48;4.65;;;1.65;;
36301;SDS011;22334;53.022;18.606;2023-02-26T13:36:15;3.92;;;1.20;;
36301;SDS011;22334;53.022;18.606;2023-02-26T13:38:45;6.70;;;1.50;;
36301;SDS011;22334;53.022;18.606;2023-02-26T13:41:49;5.93;;;1.73;;
36301;SDS011;22334;53.022;18.606;2023-02-26T13:44:29;8.75;;;2.13;;
36301;SDS011;22334;53.022;18.606;2023-02-26T13:52:33;6.53;;;1.95;;
36301;SDS011;22334;53.022;18.606;2023-02-26T13:55:00;7.95;;;2.60;;
36301;SDS011;22334;53.022;18.606;2023-02-26T14:00:32;5.20;;;1.70;;
36301;SDS011;22334;53.022;18.606;2023-02-26T14:03:22;6.82;;;1.90;;
36301;SDS011;22334;53.022;18.606;2023-02-26T14:06:06;5.20;;;1.75;;
36301;SDS011;22334;53.022;18.606;2023-02-26T14:09:01;5.50;;;1.70;;
36301;SDS011;22334;53.022;18.606;2023-02-26T14:11:42;5.25;;;1.50;;
36301;SDS011;22334;53.022;18.606;2023-02-26T14:14:30;5.10;;;2.08;;
36301;SDS011;22334;53.022;18.606;2023-02-26T14:19:35;7.25;;;2.05;;
36301;SDS011;22334;53.022;18.606;2023-02-26T14:22:35;4.53;;;1.77;;
36301;SDS011;22334;53.022;18.606;2023-02-26T14:27:43;7.63;;;2.05;;
36301;SDS011;22334;53.022;18.606;2023-02-26T14:32:51;6.75;;;2.63;;
36301;SDS011;22334;53.022;18.606;2023-02-26T14:35:27;13.10;;;3.75;;
36301;SDS011;22334;53.022;18.606;2023-02-26T14:40:34;5.82;;;2.30;;
36301;SDS011;22334;53.022;18.606;2023-02-26T14:43:03;8.07;;;2.53;;
36301;SDS011;22334;53.022;18.606;2023-02-26T14:45:37;6.25;;;1.90;;
36301;SDS011;22334;53.022;18.606;2023-02-26T14:48:04;5.97;;;2.00;;
36301;SDS011;22334;53.022;18.606;2023-02-26T15:01:56;7.63;;;2.10;;
36301;SDS011;22334;53.022;18.606;2023-02-26T15:07:23;6.63;;;2.40;;
36301;SDS011;22334;53.022;18.606;2023-02-26T15:13:11;10.90;;;2.60;;
36301;SDS011;22334;53.022;18.606;2023-02-26T15:15:47;8.98;;;2.75;;
36301;SDS011;22334;53.022;18.606;2023-02-26T15:23:57;7.55;;;2.17;;
36301;SDS011;22334;53.022;18.606;2023-02-26T15:26:44;9.00;;;2.90;;
36301;SDS011;22334;53.022;18.606;2023-02-26T15:29:12;9.30;;;3.05;;
36301;SDS011;22334;53.022;18.606;2023-02-26T15:31:54;11.87;;;4.03;;
36301;SDS011;22334;53.022;18.606;2023-02-26T15:34:22;12.85;;;4.80;;
36301;SDS011;22334;53.022;18.606;2023-02-26T15:36:49;14.88;;;4.85;;
36301;SDS011;22334;53.022;18.606;2023-02-26T15:39:16;11.63;;;3.20;;
36301;SDS011;22334;53.022;18.606;2023-02-26T15:41:42;8.30;;;3.25;;
36301;SDS011;22334;53.022;18.606;2023-02-26T15:44:13;12.25;;;3.35;;
36301;SDS011;22334;53.022;18.606;2023-02-26T15:46:48;8.27;;;3.33;;
36301;SDS011;22334;53.022;18.606;2023-02-26T15:49:52;8.07;;;2.70;;
36301;SDS011;22334;53.022;18.606;2023-02-26T15:52:19;9.48;;;2.30;;
36301;SDS011;22334;53.022;18.606;2023-02-26T15:55:00;7.90;;;2.33;;
36301;SDS011;22334;53.022;18.606;2023-02-26T15:57:37;10.63;;;3.08;;
36301;SDS011;22334;53.022;18.606;2023-02-26T16:00:05;7.72;;;2.70;;
36301;SDS011;22334;53.022;18.606;2023-02-26T16:02:40;13.20;;;3.85;;
36301;SDS011;22334;53.022;18.606;2023-02-26T16:05:09;14.35;;;3.95;;
36301;SDS011;22334;53.022;18.606;2023-02-26T16:07:41;9.52;;;2.88;;
36301;SDS011;22334;53.022;18.606;2023-02-26T16:10:14;8.27;;;2.72;;
36301;SDS011;22334;53.022;18.606;2023-02-26T16:12:42;8.38;;;2.88;;
36301;SDS011;22334;53.022;18.606;2023-02-26T16:15:12;18.65;;;3.63;;
36301;SDS011;22334;53.022;18.606;2023-02-26T16:17:44;8.70;;;3.67;;
36301;SDS011;22334;53.022;18.606;2023-02-26T16:20:19;10.55;;;3.70;;
36301;SDS011;22334;53.022;18.606;2023-02-26T16:22:50;11.00;;;3.35;;
36301;SDS011;22334;53.022;18.606;2023-02-26T16:25:27;9.98;;;3.53;;
36301;SDS011;22334;53.022;18.606;2023-02-26T16:28:00;15.15;;;4.68;;
36301;SDS011;22334;53.022;18.606;2023-02-26T16:30:32;7.97;;;2.88;;
36301;SDS011;22334;53.022;18.606;2023-02-26T16:33:00;17.98;;;3.55;;
36301;SDS011;22334;53.022;18.606;2023-02-26T16:35:28;8.55;;;2.95;;
36301;SDS011;22334;53.022;18.606;2023-02-26T16:37:58;12.30;;;3.63;;
36301;SDS011;22334;53.022;18.606;2023-02-26T16:40:34;14.73;;;4.38;;
36301;SDS011;22334;53.022;18.606;2023-02-26T16:43:02;11.82;;;4.32;;
36301;SDS011;22334;53.022;18.606;2023-02-26T16:48:04;11.68;;;3.13;;
36301;SDS011;22334;53.022;18.606;2023-02-26T16:50:35;10.68;;;3.60;;
36301;SDS011;22334;53.022;18.606;2023-02-26T16:53:10;19.15;;;4.53;;
36301;SDS011;22334;53.022;18.606;2023-02-26T16:55:39;12.77;;;3.90;;
36301;SDS011;22334;53.022;18.606;2023-02-26T16:58:06;16.55;;;5.10;;
36301;SDS011;22334;53.022;18.606;2023-02-26T17:00:34;11.80;;;3.67;;
36301;SDS011;22334;53.022;18.606;2023-02-26T17:03:08;12.70;;;3.88;;
36301;SDS011;22334;53.022;18.606;2023-02-26T17:05:41;12.18;;;3.72;;
36301;SDS011;22334;53.022;18.606;2023-02-26T17:08:14;11.48;;;3.88;;
36301;SDS011;22334;53.022;18.606;2023-02-26T17:11:05;18.83;;;3.25;;
36301;SDS011;22334;53.022;18.606;2023-02-26T17:13:31;8.93;;;2.95;;
36301;SDS011;22334;53.022;18.606;2023-02-26T17:16:03;8.05;;;2.58;;
36301;SDS011;22334;53.022;18.606;2023-02-26T17:18:31;6.32;;;2.60;;
36301;SDS011;22334;53.022;18.606;2023-02-26T17:20:57;7.00;;;2.55;;
36301;SDS011;22334;53.022;18.606;2023-02-26T17:23:25;8.18;;;2.85;;
36301;SDS011;22334;53.022;18.606;2023-02-26T17:25:53;7.28;;;2.30;;
36301;SDS011;22334;53.022;18.606;2023-02-26T17:28:28;6.53;;;2.75;;
36301;SDS011;22334;53.022;18.606;2023-02-26T17:30:55;9.20;;;2.97;;
36301;SDS011;22334;53.022;18.606;2023-02-26T17:33:21;6.40;;;3.25;;
36301;SDS011;22334;53.022;18.606;2023-02-26T17:35:47;10.38;;;3.17;;
36301;SDS011;22334;53.022;18.606;2023-02-26T17:38:13;9.93;;;3.65;;
36301;SDS011;22334;53.022;18.606;2023-02-26T17:40:40;14.65;;;3.03;;
36301;SDS011;22334;53.022;18.606;2023-02-26T17:43:07;8.88;;;3.50;;
36301;SDS011;22334;53.022;18.606;2023-02-26T17:45:34;9.02;;;2.97;;
36301;SDS011;22334;53.022;18.606;2023-02-26T17:48:00;9.13;;;3.35;;
36301;SDS011;22334;53.022;18.606;2023-02-26T17:53:01;11.75;;;3.92;;
36301;SDS011;22334;53.022;18.606;2023-02-26T17:55:27;11.35;;;4.65;;
36301;SDS011;22334;53.022;18.606;2023-02-26T17:57:53;15.00;;;4.28;;
36301;SDS011;22334;53.022;18.606;2023-02-26T18:00:19;12.38;;;4.60;;
36301;SDS011;22334;53.022;18.606;2023-02-26T18:02:45;15.68;;;5.50;;
36301;SDS011;22334;53.022;18.606;2023-02-26T18:05:10;26.05;;;5.85;;
36301;SDS011;22334;53.022;18.606;2023-02-26T18:07:36;14.50;;;5.43;;
36301;SDS011;22334;53.022;18.606;2023-02-26T18:10:02;19.45;;;5.68;;
36301;SDS011;22334;53.022;18.606;2023-02-26T18:12:28;13.85;;;4.95;;
36301;SDS011;22334;53.022;18.606;2023-02-26T18:14:54;19.65;;;5.60;;
36301;SDS011;22334;53.022;18.606;2023-02-26T18:17:21;17.92;;;5.70;;
36301;SDS011;22334;53.022;18.606;2023-02-26T18:19:48;20.60;;;5.40;;
36301;SDS011;22334;53.022;18.606;2023-02-26T18:22:14;13.43;;;5.13;;